Time;durP1;ratioP1;P1;durP2;ratioP2;P2;SDS_P1;SDS_P2;PMS_P1;PMS_P2;Temp;Humidity;BMP_temperature;BMP_pressure;BME280_temperature;BME280_humidity;BME280_pressure;Samples;Min_cycle;Max_cycle;Signal;HPM_P1;HPM_P2
2022/12/16 00:00:25;;;;;;;14.70;10.98;;;;;;;6.06;100.00;98147.88;5071835;28;20177;-62
2022/12/16 00:02:51;;;;;;;17.80;11.13;;;;;;;6.21;100.00;98183.00;5072067;28;20191;-63
2022/12/16 00:05:19;;;;;;;15.48;11.10;;;;;;;6.49;100.00;98225.09;5072087;28;20177;-62
2022/12/16 00:07:47;;;;;;;17.75;11.85;;;;;;;6.39;100.00;98226.50;5072813;28;20185;-62
2022/12/16 00:10:13;;;;;;;16.98;11.25;;;;;;;6.21;100.00;98185.56;5071975;28;20188;-62
2022/12/16 00:12:38;;;;;;;20.65;12.20;;;;;;;5.68;100.00;98111.41;5072467;28;20205;-62
2022/12/16 00:15:04;;;;;;;19.50;12.52;;;;;;;6.31;100.00;98213.25;5071947;28;20659;-62
2022/12/16 00:17:29;;;;;;;18.60;12.18;;;;;;;6.16;100.00;98190.97;5071943;28;20181;-62
2022/12/16 00:19:55;;;;;;;20.63;11.80;;;;;;;6.57;100.00;98235.75;5071915;28;20675;-62
2022/12/16 00:22:21;;;;;;;13.90;10.30;;;;;;;6.21;100.00;98194.09;5071845;28;20188;-63
2022/12/16 00:24:47;;;;;;;19.00;10.73;;;;;;;6.53;100.00;98254.81;5072164;28;20173;-62
2022/12/16 00:27:12;;;;;;;15.70;10.07;;;;;;;6.15;100.00;98212.41;5071570;28;20188;-62
2022/12/16 00:29:37;;;;;;;14.63;10.80;;;;;;;5.92;100.00;98182.00;5072016;28;20169;-62
2022/12/16 00:32:03;;;;;;;14.07;9.82;;;;;;;6.40;100.00;98256.41;5071826;28;20633;-62
2022/12/16 00:34:29;;;;;;;17.85;11.77;;;;;;;6.15;100.00;98207.28;5071451;28;20674;-62
2022/12/16 00:36:54;;;;;;;17.08;10.73;;;;;;;6.41;100.00;98245.22;5071445;28;20279;-62
2022/12/16 00:39:19;;;;;;;18.88;12.95;;;;;;;6.51;100.00;98261.81;5071701;28;20267;-62
2022/12/16 00:41:46;;;;;;;20.77;13.35;;;;;;;6.53;100.00;98264.28;5072057;28;20315;-62
2022/12/16 00:44:12;;;;;;;19.02;12.38;;;;;;;6.23;100.00;98220.53;5072235;28;20256;-62
2022/12/16 00:46:38;;;;;;;17.45;12.32;;;;;;;6.09;100.00;98202.47;5071372;28;20616;-62
2022/12/16 00:49:04;;;;;;;18.50;12.32;;;;;;;6.16;100.00;98210.66;5071642;28;20260;-62
2022/12/16 00:51:29;;;;;;;18.52;11.73;;;;;;;6.32;100.00;98229.47;5071542;28;20201;-62
2022/12/16 00:53:54;;;;;;;16.63;10.95;;;;;;;6.09;100.00;98194.78;5071633;28;20232;-62
2022/12/16 00:56:20;;;;;;;15.05;10.80;;;;;;;6.02;100.00;98180.63;5074706;28;20235;-62
2022/12/16 00:58:46;;;;;;;17.08;11.32;;;;;;;6.27;100.00;98218.63;5075315;28;20644;-62
2022/12/16 01:01:12;;;;;;;20.05;12.57;;;;;;;6.36;100.00;98225.84;5074991;28;20635;-62
2022/12/16 01:03:38;;;;;;;20.15;12.90;;;;;;;5.86;100.00;98143.84;5075504;28;20184;-62
2022/12/16 01:06:12;;;;;;;21.35;13.82;;;;;;;6.18;100.00;98183.97;5074915;28;20712;-62
2022/12/16 01:08:38;;;;;;;19.05;13.75;;;;;;;6.28;100.00;98198.00;5075146;28;20232;-62
2022/12/16 01:11:04;;;;;;;20.88;12.60;;;;;;;6.47;100.00;98226.91;5075363;28;20288;-62
2022/12/16 01:13:29;;;;;;;17.02;12.27;;;;;;;6.14;100.00;98159.41;5075964;28;20633;-62
2022/12/16 01:15:58;;;;;;;17.13;12.18;;;;;;;6.46;100.00;98204.69;5074828;28;20658;-62
2022/12/16 01:18:24;;;;;;;17.92;11.18;;;;;;;6.50;100.00;98198.47;5074777;28;20180;-62
2022/12/16 01:20:50;;;;;;;14.35;10.35;;;;;;;6.29;100.00;98163.69;5074791;28;20173;-62
2022/12/16 01:23:15;;;;;;;15.20;11.25;;;;;;;6.61;100.00;98221.00;5074926;28;20185;-63
2022/12/16 01:25:41;;;;;;;16.45;9.90;;;;;;;6.28;100.00;98174.88;5074603;28;20649;-63
2022/12/16 01:28:06;;;;;;;16.20;10.80;;;;;;;6.33;100.00;98178.03;5075381;28;20181;-63
2022/12/16 01:30:32;;;;;;;12.77;8.80;;;;;;;6.61;100.00;98232.13;5074488;28;20228;-62
2022/12/16 01:32:57;;;;;;;12.57;9.20;;;;;;;6.42;100.00;98199.81;5074361;28;20220;-62
2022/12/16 01:35:22;;;;;;;13.02;8.60;;;;;;;6.63;100.00;98240.56;5074744;28;20268;-62
2022/12/16 01:37:48;;;;;;;9.65;7.38;;;;;;;6.65;100.00;98238.72;5075182;28;20173;-62
2022/12/16 01:40:19;;;;;;;10.93;8.68;;;;;;;6.61;100.00;98231.28;5074339;28;20176;-62
2022/12/16 01:42:45;;;;;;;11.23;8.88;;;;;;;6.70;100.00;98248.78;5074269;28;20180;-62
2022/12/16 01:45:28;;;;;;;11.10;8.43;;;;;;;6.77;100.00;98260.38;5075129;28;20177;-62
2022/12/16 01:47:57;;;;;;;11.10;8.43;;;;;;;6.36;100.00;98198.38;5074792;28;20184;-62
2022/12/16 01:50:24;;;;;;;15.73;9.45;;;;;;;6.66;100.00;98253.25;5073965;28;20248;-62
2022/12/16 01:52:54;;;;;;;14.38;10.35;;;;;;;6.43;100.00;98211.75;5072284;28;20591;-62
2022/12/16 01:55:44;;;;;;;17.65;10.50;;;;;;;6.72;100.00;98263.22;5071888;28;20658;-62
2022/12/16 01:58:19;;;;;;;17.38;11.60;;;;;;;6.71;100.00;98253.81;5071837;28;20296;-63
2022/12/16 02:00:45;;;;;;;16.98;11.88;;;;;;;6.42;100.00;98198.03;5071938;28;20699;-63
2022/12/16 02:03:10;;;;;;;19.00;10.48;;;;;;;6.14;100.00;98156.84;5071511;28;20223;-62
2022/12/16 02:05:40;;;;;;;14.35;10.77;;;;;;;6.49;100.00;98207.09;5071680;28;20192;-63
2022/12/16 02:08:08;;;;;;;14.70;10.55;;;;;;;6.67;100.00;98242.06;5071761;28;20193;-62
2022/12/16 02:10:42;;;;;;;15.35;10.25;;;;;;;6.59;100.00;98239.06;5071512;28;20381;-62
2022/12/16 02:13:33;;;;;;;13.48;9.40;;;;;;;6.58;100.00;98232.28;5071403;28;20227;-62
2022/12/16 02:16:05;;;;;;;15.43;10.88;;;;;;;6.51;100.00;98219.84;5071319;28;20203;-63
2022/12/16 02:18:57;;;;;;;18.50;10.73;;;;;;;6.42;100.00;98210.09;5071851;28;20189;-62
2022/12/16 02:21:32;;;;;;;17.88;9.75;;;;;;;6.08;100.00;98149.47;5071788;28;20177;-62
2022/12/16 02:24:12;;;;;;;17.88;10.32;;;;;;;6.47;100.00;98202.97;5071691;28;20231;-62
2022/12/16 02:27:16;;;;;;;14.40;10.23;;;;;;;6.44;100.00;98209.09;5071149;28;20173;-62
2022/12/16 02:29:54;;;;;;;15.35;10.40;;;;;;;6.46;100.00;98199.53;5072185;28;20200;-62
2022/12/16 02:32:22;;;;;;;17.02;10.50;;;;;;;6.38;100.00;98198.31;5073895;28;20189;-62
2022/12/16 02:34:50;;;;;;;17.48;11.05;;;;;;;6.37;100.00;98202.63;5073514;28;20249;-62
2022/12/16 02:37:30;;;;;;;15.98;10.85;;;;;;;5.99;100.00;98137.13;5073192;28;20663;-62
2022/12/16 02:40:00;;;;;;;16.65;10.48;;;;;;;6.46;100.00;98196.97;5073211;28;20177;-62
2022/12/16 02:42:32;;;;;;;16.88;11.07;;;;;;;6.49;100.00;98196.81;5073162;28;20714;-63
2022/12/16 02:45:02;;;;;;;18.73;11.18;;;;;;;6.29;100.00;98160.28;5073056;28;20189;-62
2022/12/16 02:47:29;;;;;;;17.73;11.85;;;;;;;6.56;100.00;98208.41;5073556;28;20598;-62
2022/12/16 02:49:55;;;;;;;20.75;11.52;;;;;;;5.77;100.00;98074.16;5072939;28;20318;-62
2022/12/16 02:52:23;;;;;;;19.27;11.57;;;;;;;6.53;100.00;98203.44;5072552;28;20284;-62
2022/12/16 02:54:54;;;;;;;16.80;11.73;;;;;;;6.31;100.00;98159.31;5072553;28;20173;-62
2022/12/16 02:57:41;;;;;;;18.63;11.93;;;;;;;6.61;100.00;98216.69;5073454;28;20226;-62
2022/12/16 03:00:14;;;;;;;12.52;9.32;;;;;;;6.37;100.00;98176.09;5073101;28;20254;-62
2022/12/16 03:02:48;;;;;;;16.25;10.60;;;;;;;6.57;100.00;98209.22;5072468;28;20271;-62
2022/12/16 03:05:47;;;;;;;14.70;10.38;;;;;;;6.60;100.00;98204.75;5073359;28;20172;-62
2022/12/16 03:08:18;;;;;;;17.52;10.20;;;;;;;6.50;100.00;98192.50;5050802;28;20194;-62
2022/12/16 03:10:52;;;;;;;16.55;9.88;;;;;;;6.30;100.00;98154.25;5050354;28;20174;-62
2022/12/16 03:13:19;;;;;;;15.35;10.02;;;;;;;6.26;100.00;98143.31;5051153;28;20185;-62
2022/12/16 03:15:48;;;;;;;14.80;10.57;;;;;;;6.30;100.00;98151.69;5050253;28;20193;-62
2022/12/16 03:18:15;;;;;;;13.18;9.15;;;;;;;6.31;100.00;98149.03;5050240;28;20614;-62
2022/12/16 03:20:57;;;;;;;15.77;10.73;;;;;;;6.52;100.00;98196.63;5050218;28;20185;-62
2022/12/16 03:23:54;;;;;;;17.67;11.07;;;;;;;6.46;100.00;98181.56;5050355;28;20671;-62
2022/12/16 03:26:37;;;;;;;14.52;9.02;;;;;;;5.90;100.00;98108.53;4991030;28;20569;-62
2022/12/16 03:29:18;;;;;;;15.93;9.10;;;;;;;6.20;100.00;98156.50;4991056;28;20191;-63
2022/12/16 03:32:04;;;;;;;14.70;9.38;;;;;;;6.53;100.00;98202.63;4990621;28;20274;-62
2022/12/16 03:34:50;;;;;;;14.77;9.38;;;;;;;6.46;100.00;98207.25;4990987;28;20187;-62
2022/12/16 03:37:18;;;;;;;15.20;9.80;;;;;;;6.48;100.00;98215.69;4991554;28;20214;-62
2022/12/16 03:39:48;;;;;;;20.25;10.60;;;;;;;6.21;100.00;98160.72;5006785;28;20344;-62
2022/12/16 03:42:14;;;;;;;16.75;9.55;;;;;;;6.40;100.00;98184.47;5010337;28;20258;-62
2022/12/16 03:44:42;;;;;;;20.85;11.02;;;;;;;6.11;100.00;98149.28;5010272;28;20182;-62
2022/12/16 03:47:07;;;;;;;15.32;10.10;;;;;;;6.40;100.00;98202.44;5010285;28;20245;-62
2022/12/16 03:49:33;;;;;;;12.50;10.27;;;;;;;6.18;100.00;98158.28;5010379;28;20626;-62
2022/12/16 03:51:58;;;;;;;15.35;9.93;;;;;;;6.44;100.00;98211.66;5010161;28;20235;-63
2022/12/16 03:54:24;;;;;;;16.27;9.77;;;;;;;6.47;100.00;98218.38;5010164;28;20595;-63
2022/12/16 03:56:50;;;;;;;16.48;11.02;;;;;;;6.07;100.00;98168.31;5010962;28;20194;-63
2022/12/16 03:59:15;;;;;;;14.30;10.88;;;;;;;6.20;100.00;98191.63;5010136;28;20175;-63
2022/12/16 04:01:41;;;;;;;25.98;14.35;;;;;;;6.38;100.00;98219.72;5016236;28;20245;-63
2022/12/16 04:04:06;;;;;;;25.02;14.25;;;;;;;6.31;100.00;98207.28;5072134;28;20180;-63
2022/12/16 04:06:32;;;;;;;22.25;14.63;;;;;;;6.27;100.00;98198.91;5072131;28;20177;-63
2022/12/16 04:08:57;;;;;;;28.20;16.38;;;;;;;6.31;100.00;98210.69;5072091;28;20181;-63
2022/12/16 04:25:36;;;;;;;20.58;12.68;;;;;;;6.62;100.00;98232.94;5072245;28;20211;-63
2022/12/16 04:28:01;;;;;;;18.35;11.50;;;;;;;6.21;100.00;98171.00;5071881;28;20631;-63
2022/12/16 04:30:33;;;;;;;21.35;12.90;;;;;;;6.59;100.00;98228.78;5074086;28;20197;-63
